Time;durP1;ratioP1;P1;durP2;ratioP2;P2;SDS_P1;SDS_P2;PMS_P1;PMS_P2;Temp;Humidity;BMP_temperature;BMP_pressure;BME280_temperature;BME280_humidity;BME280_pressure;Samples;Min_cycle;Max_cycle;Signal;HPM_P1;HPM_P2
2022/11/03 00:00:07;;;;;;;6.43;2.10;;;12.50;81.60;;;;;;5030732;28;20467;-66
2022/11/03 00:02:35;;;;;;;10.33;2.17;;;12.50;81.40;;;;;;5028763;28;20477;-66
2022/11/03 00:06:03;;;;;;;14.30;2.63;;;12.50;81.60;;;;;;5027904;28;20454;-66
2022/11/03 00:07:48;;;;;;;11.90;2.00;;;12.40;82.20;;;;;;5029944;28;20513;-66
2022/11/03 00:10:15;;;;;;;12.57;2.70;;;12.50;83.00;;;;;;5029690;28;20458;-66
2022/11/03 00:12:42;;;;;;;9.83;2.43;;;12.50;82.10;;;;;;5028382;28;20519;-66
2022/11/03 00:15:09;;;;;;;7.83;2.50;;;12.40;81.70;;;;;;5029240;28;20458;-66
2022/11/03 00:17:37;;;;;;;12.13;2.30;;;12.40;81.70;;;;;;5029019;28;20487;-66
2022/11/03 00:20:05;;;;;;;4.10;2.00;;;12.40;82.20;;;;;;5028975;28;20438;-66
2022/11/03 00:22:32;;;;;;;7.73;2.43;;;12.40;82.00;;;;;;5028681;28;20558;-66
2022/11/03 00:25:02;;;;;;;16.90;3.43;;;12.40;82.00;;;;;;5030427;28;20826;-66
2022/11/03 00:27:29;;;;;;;7.90;2.33;;;12.50;82.10;;;;;;5032862;28;20460;-66
2022/11/03 00:29:56;;;;;;;6.77;2.20;;;12.40;82.50;;;;;;5035198;28;20448;-66
2022/11/03 00:32:24;;;;;;;13.53;2.60;;;12.40;82.40;;;;;;5034188;28;20495;-66
2022/11/03 00:34:52;;;;;;;11.07;1.90;;;12.40;82.50;;;;;;5033674;28;20432;-66
2022/11/03 00:37:19;;;;;;;9.57;2.80;;;12.40;82.70;;;;;;5031821;28;20441;-66
2022/11/03 00:39:45;;;;;;;8.47;2.53;;;12.40;82.80;;;;;;5032557;28;20454;-66
2022/11/03 00:42:12;;;;;;;6.53;2.27;;;12.50;82.70;;;;;;5032364;28;20486;-66
2022/11/03 00:44:39;;;;;;;5.67;2.10;;;12.50;82.60;;;;;;5032700;28;20544;-66
2022/11/03 00:47:06;;;;;;;7.97;2.23;;;12.50;83.00;;;;;;5032994;28;20470;-66
2022/11/03 00:49:33;;;;;;;6.57;2.30;;;12.50;82.50;;;;;;5032511;28;20535;-66
2022/11/03 00:52:01;;;;;;;5.40;1.70;;;12.50;82.70;;;;;;5031634;28;20493;-66
2022/11/03 00:54:29;;;;;;;8.53;2.50;;;12.50;83.30;;;;;;5031472;28;20446;-66
2022/11/03 00:56:55;;;;;;;8.53;2.70;;;12.50;83.20;;;;;;5032650;28;20442;-66
2022/11/03 00:59:22;;;;;;;6.87;2.50;;;12.50;82.90;;;;;;5031779;28;20464;-66
2022/11/03 01:01:49;;;;;;;8.43;2.20;;;12.50;83.10;;;;;;5032289;28;20456;-66
2022/11/03 01:07:04;;;;;;;9.57;2.30;;;12.50;83.50;;;;;;5032087;28;20441;-66
2022/11/03 01:09:34;;;;;;;7.83;2.10;;;12.50;83.70;;;;;;5031844;28;20431;-66
2022/11/03 01:12:03;;;;;;;7.93;2.50;;;12.50;83.40;;;;;;5031833;28;21044;-66
2022/11/03 01:14:33;;;;;;;10.73;2.93;;;12.50;83.80;;;;;;5031412;28;20468;-66
2022/11/03 01:17:00;;;;;;;6.60;2.20;;;12.50;84.10;;;;;;5031996;28;20454;-66
2022/11/03 01:19:27;;;;;;;12.03;2.43;;;12.50;84.50;;;;;;5031331;28;20449;-66
2022/11/03 01:21:54;;;;;;;8.40;2.50;;;12.60;84.40;;;;;;5032960;28;20449;-67
2022/11/03 01:24:22;;;;;;;5.80;2.03;;;12.60;84.40;;;;;;5033039;28;20453;-66
2022/11/03 01:30:12;;;;;;;10.27;2.83;;;12.50;85.40;;;;;;5033599;28;20446;-66
2022/11/03 01:32:38;;;;;;;9.80;2.57;;;12.60;84.90;;;;;;5032953;28;20535;-66
2022/11/03 01:35:06;;;;;;;9.60;2.50;;;12.60;84.90;;;;;;5031952;28;20438;-66
2022/11/03 01:37:32;;;;;;;8.67;2.47;;;12.60;84.70;;;;;;5031614;28;20450;-66
2022/11/03 01:40:01;;;;;;;6.47;2.20;;;12.60;84.90;;;;;;5032808;28;20450;-67
2022/11/03 01:42:29;;;;;;;8.33;2.40;;;12.60;85.00;;;;;;5033280;28;20983;-67
2022/11/03 01:44:56;;;;;;;8.73;2.83;;;12.60;85.20;;;;;;5032614;28;20514;-67
2022/11/03 01:47:26;;;;;;;11.27;2.60;;;12.60;85.20;;;;;;5031893;28;20458;-66
2022/11/03 01:49:59;;;;;;;9.73;2.30;;;12.60;85.20;;;;;;5030911;28;20426;-66
2022/11/03 01:52:32;;;;;;;11.07;2.67;;;12.60;85.70;;;;;;5027683;28;20490;-66
2022/11/03 01:55:04;;;;;;;9.20;2.80;;;12.60;85.60;;;;;;5027189;28;20429;-66
2022/11/03 01:57:37;;;;;;;5.73;2.13;;;12.60;85.70;;;;;;5031532;28;20441;-66
2022/11/03 02:00:05;;;;;;;5.53;1.90;;;12.60;86.00;;;;;;5032826;28;20443;-66
2022/11/03 02:02:32;;;;;;;5.40;1.87;;;12.50;86.00;;;;;;5031886;28;20502;-66
2022/11/03 02:05:02;;;;;;;12.10;2.83;;;12.50;86.30;;;;;;5033520;28;20464;-66
2022/11/03 02:07:35;;;;;;;8.87;2.23;;;12.50;86.30;;;;;;5033233;28;20500;-66
2022/11/03 02:10:05;;;;;;;11.63;3.30;;;12.60;86.40;;;;;;5030800;28;20503;-66
2022/11/03 02:12:32;;;;;;;12.37;2.60;;;12.60;86.80;;;;;;5033713;28;20494;-67
2022/11/03 02:15:03;;;;;;;6.40;2.83;;;12.50;86.60;;;;;;5037801;28;20441;-66
2022/11/03 02:17:32;;;;;;;8.20;2.10;;;12.50;86.80;;;;;;5033074;28;20435;-66
2022/11/03 02:20:03;;;;;;;9.00;3.23;;;12.50;87.00;;;;;;5032900;28;20461;-66
2022/11/03 02:22:52;;;;;;;7.40;2.37;;;12.50;87.50;;;;;;5032784;28;20441;-67
2022/11/03 02:25:36;;;;;;;6.40;1.93;;;12.50;87.90;;;;;;5032781;28;20442;-67
2022/11/03 02:28:04;;;;;;;5.67;2.03;;;12.50;88.10;;;;;;5031018;28;20435;-67
2022/11/03 02:30:37;;;;;;;7.10;2.47;;;12.40;88.30;;;;;;5030674;28;20450;-66
2022/11/03 02:33:10;;;;;;;7.13;2.17;;;12.50;88.70;;;;;;5030059;28;20491;-66
2022/11/03 02:35:42;;;;;;;7.80;2.80;;;12.40;89.80;;;;;;5030430;28;20445;-67
2022/11/03 02:38:15;;;;;;;10.90;2.90;;;12.40;89.10;;;;;;5030317;28;20444;-67
2022/11/03 02:40:47;;;;;;;12.03;2.40;;;12.40;89.40;;;;;;5029734;28;20435;-67
2022/11/03 02:43:16;;;;;;;8.63;2.20;;;12.50;89.70;;;;;;5030259;28;20472;-66
2022/11/03 02:45:44;;;;;;;6.97;2.53;;;12.50;89.60;;;;;;5030403;28;20449;-66
2022/11/03 02:48:13;;;;;;;8.20;2.10;;;12.50;90.00;;;;;;5029772;28;20454;-68
2022/11/03 02:50:41;;;;;;;8.17;2.20;;;12.40;90.20;;;;;;5029478;28;20452;-66
2022/11/03 02:53:11;;;;;;;9.27;2.20;;;12.40;90.50;;;;;;5028497;28;20486;-66
2022/11/03 02:55:40;;;;;;;10.67;2.50;;;12.40;90.70;;;;;;5030443;28;20933;-66
2022/11/03 02:58:19;;;;;;;6.97;2.30;;;12.30;90.70;;;;;;5029072;28;20461;-66
2022/11/03 03:00:50;;;;;;;6.00;1.83;;;12.30;90.90;;;;;;5029995;28;20438;-66
2022/11/03 03:03:21;;;;;;;8.87;2.57;;;12.30;91.00;;;;;;5030079;28;20471;-66
2022/11/03 03:05:52;;;;;;;10.80;2.23;;;12.30;91.10;;;;;;5032120;28;20435;-66
2022/11/03 03:08:22;;;;;;;5.17;2.20;;;12.30;91.20;;;;;;5029006;28;20470;-67
2022/11/03 03:10:49;;;;;;;9.13;2.83;;;12.30;91.30;;;;;;5028757;28;20462;-66
2022/11/03 03:13:19;;;;;;;7.00;2.40;;;12.30;91.30;;;;;;5029141;28;20485;-66
2022/11/03 03:15:48;;;;;;;8.20;2.80;;;12.30;91.50;;;;;;5030218;28;20436;-66
2022/11/03 03:18:22;;;;;;;8.20;2.73;;;12.30;91.60;;;;;;5029666;28;20449;-66
2022/11/03 03:20:55;;;;;;;8.70;2.33;;;12.40;91.60;;;;;;5029556;28;20442;-66
2022/11/03 03:23:25;;;;;;;7.30;2.30;;;12.40;91.50;;;;;;5029269;28;20466;-66
2022/11/03 03:25:57;;;;;;;8.70;2.60;;;12.40;91.50;;;;;;5029946;28;20437;-66
2022/11/03 03:28:30;;;;;;;8.67;3.00;;;12.40;91.60;;;;;;5030117;28;20435;-66
2022/11/03 03:30:59;;;;;;;9.57;2.70;;;12.40;91.60;;;;;;5030711;28;20446;-66
2022/11/03 03:33:28;;;;;;;12.37;2.40;;;12.40;91.70;;;;;;5029851;28;20517;-66
2022/11/03 03:35:57;;;;;;;8.07;2.33;;;12.30;91.80;;;;;;5029017;28;20443;-66
2022/11/03 03:38:27;;;;;;;10.90;2.80;;;12.40;92.00;;;;;;5029734;28;20458;-66
2022/11/03 03:40:57;;;;;;;11.07;2.83;;;12.40;91.90;;;;;;5029395;28;20917;-68
2022/11/03 03:43:28;;;;;;;7.77;2.37;;;12.40;92.00;;;;;;5029951;28;20472;-67
2022/11/03 03:45:59;;;;;;;11.40;2.03;;;12.40;92.00;;;;;;5029504;28;20441;-67
2022/11/03 03:48:27;;;;;;;12.63;2.53;;;12.40;92.00;;;;;;5029684;28;20448;-67
2022/11/03 03:50:54;;;;;;;10.90;3.30;;;12.40;92.10;;;;;;5029654;28;20431;-67
2022/11/03 03:53:21;;;;;;;10.90;2.90;;;12.40;92.10;;;;;;5029937;28;20489;-67
2022/11/03 03:55:51;;;;;;;8.80;2.73;;;12.50;92.10;;;;;;5028971;28;20459;-67
2022/11/03 03:58:18;;;;;;;8.17;2.90;;;12.50;92.00;;;;;;5029014;28;20430;-67
2022/11/03 04:00:46;;;;;;;11.60;2.90;;;12.40;92.00;;;;;;5032544;28;20457;-67
2022/11/03 04:03:17;;;;;;;6.97;3.10;;;12.50;92.40;;;;;;5034160;28;20471;-66
2022/11/03 04:05:44;;;;;;;5.83;1.90;;;12.50;92.10;;;;;;5032636;28;20435;-67
2022/11/03 04:08:11;;;;;;;7.70;2.50;;;12.40;92.30;;;;;;5033536;28;20441;-67
2022/11/03 04:10:38;;;;;;;13.13;2.80;;;12.40;92.40;;;;;;5032574;28;20459;-67
2022/11/03 04:24:05;;;;;;;6.67;2.07;;;12.40;92.70;;;;;;5033591;28;20435;-66
2022/11/03 04:26:32;;;;;;;7.93;2.20;;;12.40;92.70;;;;;;5032586;28;20534;-66
2022/11/03 04:29:00;;;;;;;12.47;3.23;;;12.40;92.90;;;;;;5031764;28;20448;-67
2022/11/03 04:31:37;;;;;;;11.97;3.10;;;12.40;92.80;;;;;;5031929;28;20482;-66
2022/11/03 04:34:04;;;;;;;9.97;2.97;;;12.40;92.80;;;;;;5032824;28;20520;-67
2022/11/03 04:36:31;;;;;;;9.00;2.70;;;12.40;93.10;;;;;;5033700;28;20451;-67
2022/11/03 04:38:58;;;;;;;9.03;2.60;;;12.40;93.00;;;;;;5033268;28;20451;-67
2022/11/03 04:41:28;;;;;;;10.73;3.83;;;12.40;93.00;;;;;;5033146;28;20524;-67
2022/11/03 04:43:56;;;;;;;10.80;3.20;;;12.50;92.90;;;;;;5033218;28;20529;-67
2022/11/03 04:46:26;;;;;;;9.70;2.80;;;12.50;92.90;;;;;;5032666;28;20439;-67
2022/11/03 04:48:57;;;;;;;5.00;2.87;;;12.50;93.00;;;;;;5033631;28;20465;-67
2022/11/03 04:51:26;;;;;;;7.80;2.77;;;12.50;93.10;;;;;;5033462;28;20450;-67
2022/11/03 04:53:55;;;;;;;13.87;4.50;;;12.50;93.10;;;;;;5032782;28;20461;-67
2022/11/03 04:56:24;;;;;;;11.13;3.20;;;12.50;93.10;;;;;;5031892;28;20452;-67
2022/11/03 04:58:52;;;;;;;7.67;3.30;;;12.50;93.20;;;;;;5029152;28;20450;-67
2022/11/03 05:01:21;;;;;;;10.40;3.10;;;12.50;93.10;;;;;;5024407;28;20441;-66
2022/11/03 05:03:50;;;;;;;7.73;2.73;;;12.40;93.20;;;;;;5029307;28;20459;-66
2022/11/03 05:06:21;;;;;;;10.53;3.07;;;12.40;93.30;;;;;;5032421;28;20459;-66
2022/11/03 05:08:51;;;;;;;12.07;3.80;;;12.50;93.40;;;;;;5031971;28;20435;-66
2022/11/03 05:11:25;;;;;;;10.63;3.10;;;12.50;93.40;;;;;;5031528;28;20434;-66
2022/11/03 05:13:53;;;;;;;6.03;2.30;;;12.50;93.40;;;;;;5032719;28;20489;-66
2022/11/03 05:16:20;;;;;;;10.23;3.17;;;12.60;93.30;;;;;;5032029;28;20484;-66
2022/11/03 05:18:49;;;;;;;8.30;3.20;;;12.60;93.30;;;;;;5031648;28;20475;-66
2022/11/03 05:21:21;;;;;;;12.23;3.03;;;12.60;93.20;;;;;;5031618;28;20436;-66
2022/11/03 05:23:52;;;;;;;7.60;2.53;;;12.60;93.20;;;;;;5032574;28;20470;-66
2022/11/03 05:26:24;;;;;;;7.47;2.87;;;12.60;93.30;;;;;;5031960;28;20429;-66
2022/11/03 05:28:55;;;;;;;22.93;2.90;;;12.60;93.10;;;;;;5031898;28;20439;-66
2022/11/03 05:31:25;;;;;;;9.83;3.10;;;12.60;93.20;;;;;;5032444;28;20437;-66
2022/11/03 05:33:56;;;;;;;8.97;2.70;;;12.60;93.30;;;;;;5031830;28;20494;-66
2022/11/03 05:36:25;;;;;;;9.30;3.07;;;12.60;93.30;;;;;;5031817;28;20442;-66
2022/11/03 05:38:59;;;;;;;8.00;3.40;;;12.60;93.10;;;;;;5031374;28;20451;-68
2022/11/03 05:41:28;;;;;;;8.50;2.90;;;12.60;93.20;;;;;;5014809;28;20435;-67
2022/11/03 05:43:58;;;;;;;6.40;2.13;;;12.60;93.00;;;;;;5030468;28;20474;-66
2022/11/03 05:46:29;;;;;;;11.57;2.90;;;12.70;93.00;;;;;;5029611;28;20439;-66
2022/11/03 05:48:57;;;;;;;11.43;3.10;;;12.70;92.90;;;;;;5030974;28;20435;-68
2022/11/03 05:51:32;;;;;;;8.03;3.13;;;12.70;92.70;;;;;;5030868;28;20518;-66
2022/11/03 05:54:03;;;;;;;11.53;4.10;;;12.70;92.80;;;;;;5032387;28;20476;-66
2022/11/03 05:56:32;;;;;;;9.83;3.10;;;12.80;92.70;;;;;;5032026;28;20437;-67
2022/11/03 05:59:00;;;;;;;11.53;3.30;;;12.80;92.70;;;;;;5032694;28;20454;-67
2022/11/03 06:01:30;;;;;;;6.93;4.33;;;12.80;92.80;;;;;;5032339;28;20439;-66
2022/11/03 06:03:59;;;;;;;9.37;3.00;;;12.80;92.70;;;;;;5031027;28;20474;-66
2022/11/03 06:06:33;;;;;;;8.07;2.63;;;12.80;92.70;;;;;;5032252;28;20948;-66
2022/11/03 06:09:02;;;;;;;9.87;3.27;;;12.80;92.60;;;;;;5031645;28;20926;-66
2022/11/03 06:11:35;;;;;;;10.43;3.30;;;12.80;92.60;;;;;;5031822;28;20451;-67
2022/11/03 06:14:05;;;;;;;7.50;2.50;;;12.80;92.50;;;;;;5031191;28;20471;-67
2022/11/03 06:16:38;;;;;;;6.27;3.03;;;12.90;92.40;;;;;;5030667;28;20443;-68
2022/11/03 06:19:28;;;;;;;10.63;3.07;;;12.90;92.30;;;;;;5030776;28;20432;-67
2022/11/03 06:21:59;;;;;;;8.53;2.33;;;12.90;92.30;;;;;;5031144;28;20470;-67
2022/11/03 06:24:30;;;;;;;8.93;2.90;;;12.90;92.30;;;;;;5031246;28;20433;-66
2022/11/03 06:26:58;;;;;;;6.60;2.57;;;12.90;92.00;;;;;;5031431;28;20436;-67
2022/11/03 06:29:25;;;;;;;8.93;2.40;;;12.90;92.10;;;;;;5030214;28;20439;-69
2022/11/03 06:31:55;;;;;;;9.03;3.00;;;13.00;92.20;;;;;;5030184;28;20458;-65
2022/11/03 06:34:48;;;;;;;8.40;2.80;;;12.90;92.10;;;;;;5031088;28;20486;-65
2022/11/03 06:37:24;;;;;;;4.40;2.13;;;13.00;91.90;;;;;;5030409;28;20439;-65
2022/11/03 06:39:57;;;;;;;10.83;3.80;;;13.00;91.90;;;;;;5030357;28;20475;-65
2022/11/03 06:42:24;;;;;;;10.40;2.90;;;13.10;91.90;;;;;;5030234;28;20475;-65
2022/11/03 06:44:51;;;;;;;7.77;2.20;;;13.00;91.70;;;;;;5030197;28;20450;-66
2022/11/03 06:47:22;;;;;;;7.00;2.43;;;13.10;91.60;;;;;;5030021;28;20455;-66
2022/11/03 06:49:51;;;;;;;6.10;2.23;;;13.10;91.70;;;;;;5029648;28;20495;-68
2022/11/03 06:52:26;;;;;;;10.23;2.90;;;13.10;91.70;;;;;;5025206;28;21040;-68
2022/11/03 06:54:59;;;;;;;7.20;2.47;;;13.20;91.60;;;;;;5027865;28;20468;-74
2022/11/03 06:57:26;;;;;;;8.80;2.47;;;13.20;91.50;;;;;;5014068;28;20431;-73
2022/11/03 06:59:55;;;;;;;9.80;2.70;;;13.20;91.40;;;;;;5014271;28;20471;-72
2022/11/03 07:02:36;;;;;;;6.40;2.20;;;13.20;91.40;;;;;;5026032;28;20468;-66
2022/11/03 07:05:09;;;;;;;6.97;2.03;;;13.20;91.50;;;;;;5029436;28;20441;-65
2022/11/03 07:07:37;;;;;;;7.47;3.10;;;13.20;91.40;;;;;;5028612;28;20858;-67
2022/11/03 07:10:05;;;;;;;10.03;2.37;;;13.20;91.30;;;;;;5029727;28;20443;-66
2022/11/03 07:12:31;;;;;;;6.87;2.80;;;13.30;91.30;;;;;;5029232;28;20471;-67
2022/11/03 07:14:58;;;;;;;9.50;2.70;;;13.30;91.20;;;;;;5028861;28;20493;-66
2022/11/03 07:17:25;;;;;;;7.97;2.50;;;13.30;91.20;;;;;;5029084;28;20453;-67
2022/11/03 07:19:52;;;;;;;7.13;2.30;;;13.30;91.10;;;;;;5029836;28;20446;-67
2022/11/03 07:22:23;;;;;;;7.00;2.33;;;13.40;91.10;;;;;;5029582;28;20520;-66
2022/11/03 07:24:55;;;;;;;6.20;2.33;;;13.40;91.00;;;;;;5030138;28;20441;-65
2022/11/03 07:27:26;;;;;;;12.20;2.73;;;13.50;91.10;;;;;;5026749;28;20911;-67
2022/11/03 07:29:58;;;;;;;11.43;2.60;;;13.50;90.90;;;;;;5014225;28;20529;-67
2022/11/03 07:32:29;;;;;;;9.33;2.90;;;13.40;90.60;;;;;;5014273;28;20525;-67
2022/11/03 07:35:04;;;;;;;7.90;2.67;;;13.60;90.80;;;;;;5015786;28;20470;-67
2022/11/03 07:37:31;;;;;;;6.17;2.70;;;13.70;90.60;;;;;;5017886;28;20442;-67
2022/11/03 07:39:59;;;;;;;8.40;2.80;;;13.70;90.20;;;;;;5018013;28;20453;-67
2022/11/03 07:42:27;;;;;;;9.77;3.10;;;13.80;89.80;;;;;;5017903;28;20479;-66
2022/11/03 07:44:56;;;;;;;8.60;2.77;;;13.70;90.20;;;;;;5017933;28;20471;-67
2022/11/03 07:47:25;;;;;;;8.00;2.77;;;13.70;89.80;;;;;;5017670;28;20455;-66
2022/11/03 07:49:52;;;;;;;7.33;2.67;;;13.60;90.50;;;;;;5017688;28;20458;-66
2022/11/03 07:52:22;;;;;;;6.23;2.27;;;13.50;90.70;;;;;;5017977;28;20474;-67
2022/11/03 07:54:49;;;;;;;9.27;2.53;;;13.50;91.10;;;;;;5017638;28;20520;-67
2022/11/03 07:57:22;;;;;;;8.87;2.90;;;13.50;91.00;;;;;;5017779;28;20451;-67
2022/11/03 07:59:51;;;;;;;10.47;2.40;;;13.60;90.90;;;;;;5017773;28;20431;-67
2022/11/03 08:02:26;;;;;;;9.23;2.50;;;13.60;91.00;;;;;;5017605;28;20472;-67
2022/11/03 08:04:53;;;;;;;9.13;3.40;;;13.60;90.90;;;;;;5017548;28;20442;-67
2022/11/03 08:07:19;;;;;;;7.43;2.53;;;13.70;90.90;;;;;;5017173;28;20452;-66
2022/11/03 08:09:46;;;;;;;6.03;2.23;;;13.70;90.90;;;;;;5017303;28;20461;-66
2022/11/03 08:12:13;;;;;;;8.10;2.57;;;13.70;90.80;;;;;;5017167;28;20471;-66
2022/11/03 08:14:41;;;;;;;9.90;3.00;;;13.70;90.80;;;;;;5017346;28;20597;-67
2022/11/03 08:17:08;;;;;;;7.03;3.40;;;13.70;90.60;;;;;;5017275;28;20454;-66
2022/11/03 08:19:34;;;;;;;7.23;2.43;;;13.70;90.60;;;;;;5017032;28;20453;-66
2022/11/03 08:22:01;;;;;;;10.20;3.30;;;13.70;90.70;;;;;;5017229;28;20496;-66
2022/11/03 08:24:28;;;;;;;6.70;3.50;;;13.80;90.70;;;;;;5017050;28;20451;-67
2022/11/03 08:26:54;;;;;;;7.47;2.67;;;13.80;90.70;;;;;;5016780;28;20826;-67
2022/11/03 08:29:21;;;;;;;10.27;3.07;;;13.80;90.70;;;;;;5017155;28;20450;-67
2022/11/03 08:31:49;;;;;;;7.60;2.70;;;13.80;90.60;;;;;;5016810;28;20439;-67
2022/11/03 08:34:16;;;;;;;5.93;2.60;;;13.80;90.60;;;;;;5016658;28;20487;-67
2022/11/03 08:36:43;;;;;;;6.60;3.37;;;13.80;90.60;;;;;;5016742;28;20462;-67
2022/11/03 08:39:09;;;;;;;9.20;2.90;;;13.80;90.60;;;;;;5017031;28;20462;-67
2022/11/03 08:41:36;;;;;;;12.07;2.70;;;13.80;90.70;;;;;;5016840;28;20456;-67
2022/11/03 08:44:03;;;;;;;7.80;3.00;;;13.80;90.60;;;;;;5016746;28;20869;-67
2022/11/03 08:46:30;;;;;;;9.53;3.10;;;13.80;90.60;;;;;;5016257;28;20529;-67
2022/11/03 08:48:58;;;;;;;8.97;2.53;;;13.80;90.50;;;;;;5016743;28;20461;-67
2022/11/03 08:51:25;;;;;;;10.30;3.30;;;13.90;90.50;;;;;;5016558;28;20530;-67
2022/11/03 08:53:52;;;;;;;9.33;2.90;;;13.80;90.40;;;;;;5016689;28;20493;-67
2022/11/03 08:56:19;;;;;;;6.40;2.50;;;13.80;90.50;;;;;;5016474;28;20491;-67
2022/11/03 08:58:47;;;;;;;7.63;2.90;;;13.90;90.50;;;;;;5016809;28;20449;-67
2022/11/03 09:01:14;;;;;;;5.53;3.20;;;13.90;90.50;;;;;;5016425;28;20441;-67
2022/11/03 09:03:42;;;;;;;7.70;2.97;;;13.90;90.40;;;;;;5016999;28;20474;-67
2022/11/03 09:06:10;;;;;;;7.40;3.17;;;14.00;90.30;;;;;;5016356;28;20462;-67
2022/11/03 09:08:37;;;;;;;7.20;3.40;;;14.00;90.20;;;;;;5016408;28;20451;-67
2022/11/03 09:11:04;;;;;;;9.40;3.13;;;14.10;90.30;;;;;;5016292;28;20454;-67
2022/11/03 09:13:30;;;;;;;10.23;3.10;;;14.10;90.00;;;;;;5016197;28;20844;-67
2022/11/03 09:15:57;;;;;;;8.17;3.00;;;14.10;90.00;;;;;;5016152;28;20450;-67
2022/11/03 09:18:24;;;;;;;12.13;3.27;;;14.10;90.10;;;;;;5016060;28;20447;-67
2022/11/03 09:20:50;;;;;;;9.57;4.00;;;14.10;90.10;;;;;;5016072;28;20442;-68
2022/11/03 09:23:18;;;;;;;5.10;3.10;;;14.20;90.00;;;;;;5015830;28;20473;-68
2022/11/03 09:25:47;;;;;;;6.10;2.97;;;14.20;90.00;;;;;;5015718;28;20457;-68
2022/11/03 09:28:13;;;;;;;7.37;3.80;;;14.20;90.00;;;;;;5015645;28;20449;-67
2022/11/03 09:30:40;;;;;;;6.10;3.00;;;14.20;89.90;;;;;;5015849;28;20429;-68
2022/11/03 09:33:07;;;;;;;8.47;3.50;;;14.30;90.00;;;;;;5015499;28;20482;-68
2022/11/03 09:35:33;;;;;;;10.73;3.40;;;14.30;89.90;;;;;;5015854;28;20494;-68
2022/11/03 09:38:00;;;;;;;7.83;3.00;;;14.40;89.70;;;;;;5015806;28;20433;-68
2022/11/03 09:40:28;;;;;;;13.13;3.07;;;14.50;89.30;;;;;;5015300;28;20455;-68
2022/11/03 09:42:56;;;;;;;8.10;2.87;;;14.50;89.10;;;;;;5015837;28;20482;-67
2022/11/03 09:45:23;;;;;;;8.50;3.77;;;14.50;89.00;;;;;;5016596;28;20444;-67
2022/11/03 09:47:50;;;;;;;7.00;3.07;;;14.60;89.10;;;;;;5015819;28;20434;-68
2022/11/03 09:50:19;;;;;;;9.07;3.50;;;14.60;88.90;;;;;;5015671;28;20490;-68
2022/11/03 09:52:46;;;;;;;7.60;2.40;;;14.70;88.30;;;;;;5015547;28;20466;-68
2022/11/03 09:55:15;;;;;;;4.97;2.87;;;14.80;87.50;;;;;;5015607;28;20474;-68
2022/11/03 09:57:45;;;;;;;6.00;3.30;;;14.70;87.10;;;;;;5014612;28;20454;-67
2022/11/03 10:00:19;;;;;;;13.27;2.90;;;14.80;87.20;;;;;;5015474;28;20442;-68
2022/11/03 10:02:47;;;;;;;11.50;3.20;;;14.80;86.90;;;;;;5015125;28;20556;-68
2022/11/03 10:05:16;;;;;;;10.07;2.60;;;14.90;86.40;;;;;;5015624;28;20458;-68
2022/11/03 10:07:44;;;;;;;4.97;2.13;;;14.90;85.70;;;;;;5015086;28;20914;-68
2022/11/03 10:10:16;;;;;;;5.47;2.73;;;14.90;84.90;;;;;;5015390;28;20454;-68
2022/11/03 10:12:46;;;;;;;8.90;2.70;;;14.90;84.30;;;;;;5015566;28;20473;-68
2022/11/03 10:15:16;;;;;;;6.00;2.00;;;15.00;83.80;;;;;;5015380;28;20513;-68
2022/11/03 10:17:44;;;;;;;5.27;2.30;;;15.10;83.40;;;;;;5015273;28;20432;-68
2022/11/03 10:20:12;;;;;;;7.50;2.00;;;15.10;82.90;;;;;;5015047;28;20455;-68
2022/11/03 10:22:39;;;;;;;6.73;2.17;;;15.20;82.50;;;;;;5015132;28;20836;-67
2022/11/03 10:25:26;;;;;;;9.27;3.03;;;15.20;81.80;;;;;;5015136;28;20443;-67
2022/11/03 10:28:12;;;;;;;7.87;2.17;;;15.20;81.80;;;;;;5015176;28;20439;-68
2022/11/03 10:30:51;;;;;;;3.50;2.20;;;15.20;81.50;;;;;;5015220;28;20431;-68
2022/11/03 10:33:30;;;;;;;5.33;1.90;;;15.30;81.10;;;;;;5014653;28;21000;-68
2022/11/03 10:35:58;;;;;;;4.30;1.83;;;15.20;81.00;;;;;;5015695;28;20486;-68
2022/11/03 10:38:27;;;;;;;7.53;2.23;;;15.20;80.80;;;;;;5014622;28;20844;-68
2022/11/03 10:40:54;;;;;;;3.50;1.90;;;15.20;80.90;;;;;;5014566;28;20843;-68
2022/11/03 10:43:23;;;;;;;9.10;2.53;;;15.30;80.70;;;;;;5026149;28;20478;-67
2022/11/03 10:45:54;;;;;;;6.70;2.10;;;15.30;80.20;;;;;;5027681;28;20459;-67
2022/11/03 10:48:21;;;;;;;5.37;1.70;;;15.30;80.00;;;;;;5027067;28;20447;-66
2022/11/03 10:50:47;;;;;;;6.00;2.90;;;15.30;79.90;;;;;;5026342;28;20469;-66
2022/11/03 10:53:19;;;;;;;6.10;3.00;;;15.30;79.40;;;;;;5026081;28;20478;-66
2022/11/03 10:55:46;;;;;;;7.73;2.03;;;15.40;79.50;;;;;;5026030;28;20481;-66
2022/11/03 10:58:13;;;;;;;5.97;2.40;;;15.50;79.50;;;;;;5026545;28;20838;-67
2022/11/03 11:00:42;;;;;;;4.50;2.10;;;15.50;78.80;;;;;;5021203;28;20458;-68
2022/11/03 11:03:11;;;;;;;5.50;1.80;;;15.50;78.50;;;;;;5021877;28;20475;-68
2022/11/03 11:05:44;;;;;;;4.03;1.80;;;15.60;78.20;;;;;;5021855;28;20960;-67
2022/11/03 11:08:13;;;;;;;7.00;2.40;;;15.60;77.80;;;;;;5021137;28;20526;-67
2022/11/03 11:10:44;;;;;;;11.00;3.30;;;15.60;77.80;;;;;;5022678;28;20455;-67
2022/11/03 11:13:26;;;;;;;5.60;1.97;;;15.60;77.40;;;;;;5021058;28;20477;-67
2022/11/03 11:15:55;;;;;;;7.63;2.50;;;15.70;77.20;;;;;;5025117;28;20467;-67
2022/11/03 11:19:02;;;;;;;6.90;2.20;;;15.70;76.80;;;;;;5024897;28;20451;-67
2022/11/03 11:22:00;;;;;;;5.10;1.80;;;15.80;76.50;;;;;;5003879;28;20486;-68
2022/11/03 11:24:59;;;;;;;4.93;1.90;;;15.90;76.40;;;;;;5024316;28;20435;-67
2022/11/03 11:27:59;;;;;;;7.33;2.10;;;16.00;76.00;;;;;;5021838;28;20935;-67
2022/11/03 11:31:03;;;;;;;30.23;6.20;;;16.00;75.70;;;;;;5020865;28;20492;-67
2022/11/03 11:33:33;;;;;;;5.00;2.20;;;16.10;75.90;;;;;;5022337;28;20514;-67
2022/11/03 11:36:18;;;;;;;10.93;2.60;;;16.00;75.80;;;;;;5024846;28;20490;-67
2022/11/03 11:39:10;;;;;;;7.60;2.20;;;15.90;76.50;;;;;;5024719;28;20434;-67
2022/11/03 11:42:10;;;;;;;6.30;2.23;;;15.80;77.90;;;;;;5029138;28;20451;-67
2022/11/03 11:44:48;;;;;;;6.60;2.47;;;15.70;77.60;;;;;;5029071;28;20446;-67
2022/11/03 11:47:34;;;;;;;10.80;2.97;;;15.60;77.80;;;;;;5030402;28;20486;-67
2022/11/03 11:50:26;;;;;;;7.27;2.00;;;15.50;78.20;;;;;;5029310;28;20456;-67
2022/11/03 11:53:09;;;;;;;6.93;2.57;;;15.30;79.20;;;;;;5029160;28;20471;-67
2022/11/03 11:55:41;;;;;;;7.57;2.60;;;15.20;80.30;;;;;;5028803;28;20468;-67
2022/11/03 11:58:17;;;;;;;5.07;2.40;;;15.20;80.50;;;;;;5026843;28;20442;-67
2022/11/03 12:00:52;;;;;;;7.90;2.90;;;15.10;80.60;;;;;;5028289;28;20453;-67
2022/11/03 12:03:24;;;;;;;7.00;2.60;;;15.20;80.70;;;;;;5029146;28;21017;-66
2022/11/03 12:05:52;;;;;;;6.03;2.93;;;15.20;80.90;;;;;;5029942;28;20431;-67
2022/11/03 12:08:20;;;;;;;4.80;2.33;;;15.20;81.40;;;;;;5029615;28;20543;-67
2022/11/03 12:10:53;;;;;;;7.20;2.80;;;15.20;82.30;;;;;;5029446;28;20446;-67
2022/11/03 12:13:36;;;;;;;4.97;2.20;;;15.30;82.20;;;;;;5030271;28;20471;-66
2022/11/03 12:16:03;;;;;;;5.20;2.53;;;15.50;82.20;;;;;;5031011;28;20476;-65
2022/11/03 12:18:31;;;;;;;5.50;2.83;;;15.50;81.70;;;;;;5029465;28;20437;-67
2022/11/03 12:21:00;;;;;;;9.63;3.20;;;15.50;81.90;;;;;;5030982;28;20450;-67
2022/11/03 12:23:38;;;;;;;6.63;3.17;;;15.50;82.00;;;;;;5031800;28;20475;-67
2022/11/03 12:26:06;;;;;;;5.50;2.30;;;15.50;81.90;;;;;;5033105;28;20442;-67
2022/11/03 12:28:34;;;;;;;3.93;2.17;;;15.60;81.60;;;;;;5034009;28;20450;-67
2022/11/03 12:31:00;;;;;;;5.73;2.47;;;15.70;81.20;;;;;;5034496;28;20427;-67
2022/11/03 12:33:27;;;;;;;6.10;2.20;;;15.80;81.20;;;;;;5031490;28;20489;-67
2022/11/03 12:35:54;;;;;;;7.07;2.77;;;15.80;81.40;;;;;;5032367;28;20494;-66
2022/11/03 12:38:23;;;;;;;8.90;2.70;;;15.70;81.90;;;;;;5033714;28;20462;-67
2022/11/03 12:40:51;;;;;;;5.67;3.13;;;15.50;82.30;;;;;;5033084;28;20457;-67
2022/11/03 12:43:18;;;;;;;8.13;2.73;;;15.50;82.60;;;;;;5030303;28;20485;-67
2022/11/03 12:45:45;;;;;;;8.27;3.57;;;15.40;83.10;;;;;;5030059;28;20427;-66
2022/11/03 12:48:12;;;;;;;5.17;2.67;;;15.30;83.20;;;;;;5030682;28;20450;-66
2022/11/03 12:50:39;;;;;;;5.30;2.43;;;15.20;83.40;;;;;;5029662;28;20462;-67
2022/11/03 12:53:06;;;;;;;5.13;2.80;;;15.20;84.00;;;;;;5029934;28;20473;-67
2022/11/03 12:55:35;;;;;;;6.43;2.90;;;15.30;84.10;;;;;;5031721;28;20486;-67
2022/11/03 12:58:02;;;;;;;11.77;3.87;;;15.20;83.60;;;;;;5031484;28;20955;-67
2022/11/03 13:00:29;;;;;;;7.13;3.50;;;15.00;84.30;;;;;;5031255;28;20431;-66
2022/11/03 13:02:56;;;;;;;4.77;2.50;;;14.90;84.70;;;;;;5030060;28;20467;-67
2022/11/03 13:05:24;;;;;;;3.93;2.33;;;14.90;85.00;;;;;;5031186;28;20436;-66
2022/11/03 13:07:51;;;;;;;5.03;2.63;;;14.90;85.20;;;;;;5031139;28;20985;-66
2022/11/03 13:10:18;;;;;;;6.53;3.30;;;14.90;85.10;;;;;;5031026;28;20450;-67
2022/11/03 13:12:46;;;;;;;11.23;3.10;;;14.90;85.60;;;;;;5032465;28;20529;-66
2022/11/03 13:15:14;;;;;;;6.10;2.97;;;14.90;85.30;;;;;;5032066;28;20471;-66
2022/11/03 13:17:42;;;;;;;6.53;2.23;;;14.90;85.20;;;;;;5030162;28;20427;-67